sensor_id;sensor_type;location;lat;lon;timestamp;temperature;humidity
36244;DHT22;22284;49.956;19.816;2022-09-13T00:02:54;12.57;77.24
36244;DHT22;22284;49.956;19.816;2022-09-13T00:05:57;12.64;76.94
36244;DHT22;22284;49.956;19.816;2022-09-13T00:08:58;12.67;76.20
36244;DHT22;22284;49.956;19.816;2022-09-13T00:12:01;12.50;75.49
36244;DHT22;22284;49.956;19.816;2022-09-13T00:15:03;12.32;75.27
36244;DHT22;22284;49.956;19.816;2022-09-13T00:18:04;12.21;75.36
36244;DHT22;22284;49.956;19.816;2022-09-13T00:21:13;12.09;75.33
36244;DHT22;22284;49.956;19.816;2022-09-13T00:24:15;12.00;75.47
36244;DHT22;22284;49.956;19.816;2022-09-13T00:27:16;11.91;75.59
36244;DHT22;22284;49.956;19.816;2022-09-13T00:30:18;11.80;75.61
36244;DHT22;22284;49.956;19.816;2022-09-13T00:33:19;11.70;75.74
36244;DHT22;22284;49.956;19.816;2022-09-13T00:36:20;11.63;75.95
36244;DHT22;22284;49.956;19.816;2022-09-13T00:39:21;11.53;76.21
36244;DHT22;22284;49.956;19.816;2022-09-13T00:42:27;11.49;76.39
36244;DHT22;22284;49.956;19.816;2022-09-13T00:45:28;11.43;76.56
36244;DHT22;22284;49.956;19.816;2022-09-13T00:48:29;11.38;76.75
36244;DHT22;22284;49.956;19.816;2022-09-13T00:51:31;11.28;76.63
36244;DHT22;22284;49.956;19.816;2022-09-13T00:54:37;11.22;76.81
36244;DHT22;22284;49.956;19.816;2022-09-13T00:57:40;11.17;77.02
36244;DHT22;22284;49.956;19.816;2022-09-13T01:00:43;11.08;77.35
36244;DHT22;22284;49.956;19.816;2022-09-13T01:03:45;11.03;77.37
36244;DHT22;22284;49.956;19.816;2022-09-13T01:06:48;10.97;77.44
36244;DHT22;22284;49.956;19.816;2022-09-13T01:09:50;10.93;77.58
36244;DHT22;22284;49.956;19.816;2022-09-13T01:13:15;10.94;77.45
36244;DHT22;22284;49.956;19.816;2022-09-13T01:16:16;10.89;77.73
36244;DHT22;22284;49.956;19.816;2022-09-13T01:19:18;10.86;77.66
36244;DHT22;22284;49.956;19.816;2022-09-13T01:22:50;10.82;77.69
36244;DHT22;22284;49.956;19.816;2022-09-13T01:26:30;10.78;77.63
36244;DHT22;22284;49.956;19.816;2022-09-13T01:30:05;10.73;77.69
36244;DHT22;22284;49.956;19.816;2022-09-13T01:40:33;10.65;77.66
36244;DHT22;22284;49.956;19.816;2022-09-13T01:47:22;10.61;77.65
36244;DHT22;22284;49.956;19.816;2022-09-13T01:57:31;10.58;77.37
36244;DHT22;22284;49.956;19.816;2022-09-13T02:00:37;10.56;77.38
36244;DHT22;22284;49.956;19.816;2022-09-13T02:03:57;10.53;77.58
36244;DHT22;22284;49.956;19.816;2022-09-13T02:07:10;10.51;77.53
36244;DHT22;22284;49.956;19.816;2022-09-13T02:10:20;10.52;77.64
36244;DHT22;22284;49.956;19.816;2022-09-13T02:13:25;10.46;77.53
36244;DHT22;22284;49.956;19.816;2022-09-13T02:16:51;10.42;77.49
36244;DHT22;22284;49.956;19.816;2022-09-13T02:19:59;10.38;77.59
36244;DHT22;22284;49.956;19.816;2022-09-13T02:23:01;10.34;77.66
36244;DHT22;22284;49.956;19.816;2022-09-13T02:26:04;10.27;77.64
36244;DHT22;22284;49.956;19.816;2022-09-13T02:29:09;10.25;77.78
36244;DHT22;22284;49.956;19.816;2022-09-13T02:32:23;10.21;77.71
36244;DHT22;22284;49.956;19.816;2022-09-13T02:35:32;10.18;77.68
36244;DHT22;22284;49.956;19.816;2022-09-13T02:38:56;10.14;77.71
36244;DHT22;22284;49.956;19.816;2022-09-13T02:42:23;10.16;77.79
36244;DHT22;22284;49.956;19.816;2022-09-13T02:45:30;10.09;77.66
36244;DHT22;22284;49.956;19.816;2022-09-13T02:49:11;10.09;77.67
36244;DHT22;22284;49.956;19.816;2022-09-13T02:56:37;10.07;77.66
36244;DHT22;22284;49.956;19.816;2022-09-13T02:59:36;10.09;77.67
36244;DHT22;22284;49.956;19.816;2022-09-13T03:02:38;10.07;77.67
36244;DHT22;22284;49.956;19.816;2022-09-13T03:05:41;10.06;77.62
36244;DHT22;22284;49.956;19.816;2022-09-13T03:08:43;10.06;77.67
36244;DHT22;22284;49.956;19.816;2022-09-13T03:15:17;10.06;77.72
36244;DHT22;22284;49.956;19.816;2022-09-13T03:29:05;10.04;77.90
36244;DHT22;22284;49.956;19.816;2022-09-13T03:35:35;10.01;77.98
36244;DHT22;22284;49.956;19.816;2022-09-13T03:41:52;9.93;78.14
36244;DHT22;22284;49.956;19.816;2022-09-13T03:44:56;9.88;78.39
36244;DHT22;22284;49.956;19.816;2022-09-13T03:47:58;9.82;78.28
36244;DHT22;22284;49.956;19.816;2022-09-13T03:51:00;9.82;78.34
36244;DHT22;22284;49.956;19.816;2022-09-13T03:54:05;9.81;78.33
36244;DHT22;22284;49.956;19.816;2022-09-13T03:57:16;9.81;78.48
36244;DHT22;22284;49.956;19.816;2022-09-13T04:00:19;9.78;78.44
36244;DHT22;22284;49.956;19.816;2022-09-13T04:03:20;9.73;78.54
36244;DHT22;22284;49.956;19.816;2022-09-13T04:06:21;9.70;78.51
36244;DHT22;22284;49.956;19.816;2022-09-13T04:09:22;9.70;78.61
36244;DHT22;22284;49.956;19.816;2022-09-13T04:12:24;9.67;78.77
36244;DHT22;22284;49.956;19.816;2022-09-13T04:15:27;9.66;78.71
36244;DHT22;22284;49.956;19.816;2022-09-13T04:18:31;9.66;78.54
36244;DHT22;22284;49.956;19.816;2022-09-13T04:21:32;9.63;78.60
36244;DHT22;22284;49.956;19.816;2022-09-13T04:24:33;9.62;78.84
36244;DHT22;22284;49.956;19.816;2022-09-13T04:27:36;9.59;78.70
36244;DHT22;22284;49.956;19.816;2022-09-13T04:30:37;9.55;78.61
36244;DHT22;22284;49.956;19.816;2022-09-13T04:33:38;9.59;78.65
36244;DHT22;22284;49.956;19.816;2022-09-13T04:36:41;9.59;78.68
36244;DHT22;22284;49.956;19.816;2022-09-13T04:39:42;9.59;78.59
36244;DHT22;22284;49.956;19.816;2022-09-13T04:42:43;9.59;78.57
36244;DHT22;22284;49.956;19.816;2022-09-13T04:45:45;9.63;78.55
36244;DHT22;22284;49.956;19.816;2022-09-13T04:48:50;9.66;78.50
36244;DHT22;22284;49.956;19.816;2022-09-13T04:51:52;9.73;78.47
36244;DHT22;22284;49.956;19.816;2022-09-13T04:54:53;9.72;78.52
36244;DHT22;22284;49.956;19.816;2022-09-13T04:57:54;9.72;78.40
36244;DHT22;22284;49.956;19.816;2022-09-13T05:01:08;9.75;78.43
36244;DHT22;22284;49.956;19.816;2022-09-13T05:04:10;9.76;78.44
36244;DHT22;22284;49.956;19.816;2022-09-13T05:07:12;9.78;78.46
36244;DHT22;22284;49.956;19.816;2022-09-13T05:10:13;9.78;78.54
36244;DHT22;22284;49.956;19.816;2022-09-13T05:13:14;9.78;78.50
36244;DHT22;22284;49.956;19.816;2022-09-13T05:16:15;9.75;78.54
36244;DHT22;22284;49.956;19.816;2022-09-13T05:19:16;9.70;78.56
36244;DHT22;22284;49.956;19.816;2022-09-13T05:22:17;9.69;78.72
36244;DHT22;22284;49.956;19.816;2022-09-13T05:25:18;9.69;78.81
36244;DHT22;22284;49.956;19.816;2022-09-13T05:28:21;9.76;78.90
36244;DHT22;22284;49.956;19.816;2022-09-13T05:31:29;9.79;79.18
36244;DHT22;22284;49.956;19.816;2022-09-13T05:34:31;9.83;79.22
36244;DHT22;22284;49.956;19.816;2022-09-13T05:37:32;9.83;79.29
36244;DHT22;22284;49.956;19.816;2022-09-13T05:40:33;9.90;79.45
36244;DHT22;22284;49.956;19.816;2022-09-13T05:43:35;9.97;79.92
36244;DHT22;22284;49.956;19.816;2022-09-13T05:46:36;10.01;80.14
36244;DHT22;22284;49.956;19.816;2022-09-13T05:49:37;10.04;80.10
36244;DHT22;22284;49.956;19.816;2022-09-13T05:52:38;10.11;80.23
36244;DHT22;22284;49.956;19.816;2022-09-13T05:55:39;10.20;80.20
36244;DHT22;22284;49.956;19.816;2022-09-13T05:58:42;10.25;80.14
36244;DHT22;22284;49.956;19.816;2022-09-13T06:01:44;10.37;80.30
36244;DHT22;22284;49.956;19.816;2022-09-13T06:04:45;10.42;80.58
36244;DHT22;22284;49.956;19.816;2022-09-13T06:07:46;10.53;80.79
36244;DHT22;22284;49.956;19.816;2022-09-13T06:11:07;10.61;80.91
36244;DHT22;22284;49.956;19.816;2022-09-13T06:14:09;10.71;81.08
36244;DHT22;22284;49.956;19.816;2022-09-13T06:17:10;10.79;81.31
36244;DHT22;22284;49.956;19.816;2022-09-13T06:20:11;10.89;81.29
36244;DHT22;22284;49.956;19.816;2022-09-13T06:23:13;11.00;81.36
36244;DHT22;22284;49.956;19.816;2022-09-13T06:26:18;11.12;81.56
36244;DHT22;22284;49.956;19.816;2022-09-13T06:29:19;11.22;81.62
36244;DHT22;22284;49.956;19.816;2022-09-13T06:32:20;11.34;81.81
36244;DHT22;22284;49.956;19.816;2022-09-13T06:35:21;11.45;82.11
36244;DHT22;22284;49.956;19.816;2022-09-13T06:38:22;11.56;82.19
36244;DHT22;22284;49.956;19.816;2022-09-13T06:41:24;11.65;82.23
36244;DHT22;22284;49.956;19.816;2022-09-13T06:44:26;11.79;82.33
36244;DHT22;22284;49.956;19.816;2022-09-13T06:47:28;11.88;82.39
36244;DHT22;22284;49.956;19.816;2022-09-13T06:50:29;11.98;82.45
36244;DHT22;22284;49.956;19.816;2022-09-13T06:53:32;12.09;82.54
36244;DHT22;22284;49.956;19.816;2022-09-13T06:56:36;12.21;82.66
36244;DHT22;22284;49.956;19.816;2022-09-13T06:59:37;12.31;82.78
36244;DHT22;22284;49.956;19.816;2022-09-13T07:02:38;12.43;82.77
36244;DHT22;22284;49.956;19.816;2022-09-13T07:05:39;12.52;82.82
36244;DHT22;22284;49.956;19.816;2022-09-13T07:08:42;12.64;82.89
36244;DHT22;22284;49.956;19.816;2022-09-13T07:11:44;12.77;83.04
36244;DHT22;22284;49.956;19.816;2022-09-13T07:14:46;12.90;83.03
36244;DHT22;22284;49.956;19.816;2022-09-13T07:17:47;13.01;83.05
36244;DHT22;22284;49.956;19.816;2022-09-13T07:20:48;13.14;83.12
36244;DHT22;22284;49.956;19.816;2022-09-13T07:23:51;13.25;83.12
36244;DHT22;22284;49.956;19.816;2022-09-13T07:26:53;13.40;83.25
36244;DHT22;22284;49.956;19.816;2022-09-13T07:29:54;13.51;83.20
36244;DHT22;22284;49.956;19.816;2022-09-13T07:32:55;13.64;83.13
36244;DHT22;22284;49.956;19.816;2022-09-13T07:35:57;13.78;82.92
36244;DHT22;22284;49.956;19.816;2022-09-13T07:39:00;13.94;82.79
36244;DHT22;22284;49.956;19.816;2022-09-13T07:42:01;14.08;82.69
36244;DHT22;22284;49.956;19.816;2022-09-13T07:45:03;14.23;82.36
36244;DHT22;22284;49.956;19.816;2022-09-13T07:48:04;14.36;82.02
36244;DHT22;22284;49.956;19.816;2022-09-13T07:51:17;14.56;81.84
36244;DHT22;22284;49.956;19.816;2022-09-13T07:54:22;14.67;81.22
36244;DHT22;22284;49.956;19.816;2022-09-13T07:57:26;14.81;80.88
36244;DHT22;22284;49.956;19.816;2022-09-13T08:00:27;14.96;80.53
36244;DHT22;22284;49.956;19.816;2022-09-13T08:03:28;15.09;80.16
36244;DHT22;22284;49.956;19.816;2022-09-13T08:06:33;15.22;79.82
36244;DHT22;22284;49.956;19.816;2022-09-13T08:09:34;15.30;79.31
36244;DHT22;22284;49.956;19.816;2022-09-13T08:12:36;15.42;79.01
36244;DHT22;22284;49.956;19.816;2022-09-13T08:15:37;15.53;78.85
36244;DHT22;22284;49.956;19.816;2022-09-13T08:18:43;15.64;78.32
36244;DHT22;22284;49.956;19.816;2022-09-13T08:21:46;15.75;77.80
36244;DHT22;22284;49.956;19.816;2022-09-13T08:24:47;15.82;77.36
36244;DHT22;22284;49.956;19.816;2022-09-13T08:27:48;15.93;77.08
36244;DHT22;22284;49.956;19.816;2022-09-13T08:30:50;16.02;76.54
36244;DHT22;22284;49.956;19.816;2022-09-13T08:33:51;16.08;76.53
36244;DHT22;22284;49.956;19.816;2022-09-13T08:36:53;16.13;76.45
36244;DHT22;22284;49.956;19.816;2022-09-13T08:39:54;16.16;76.28
36244;DHT22;22284;49.956;19.816;2022-09-13T08:43:09;16.29;76.12
36244;DHT22;22284;49.956;19.816;2022-09-13T08:46:28;16.36;75.94
36244;DHT22;22284;49.956;19.816;2022-09-13T08:49:37;16.47;75.62
36244;DHT22;22284;49.956;19.816;2022-09-13T08:53:19;16.60;75.58
36244;DHT22;22284;49.956;19.816;2022-09-13T08:56:41;16.68;75.20
36244;DHT22;22284;49.956;19.816;2022-09-13T09:00:03;16.78;75.02
36244;DHT22;22284;49.956;19.816;2022-09-13T09:06:37;17.01;74.44
36244;DHT22;22284;49.956;19.816;2022-09-13T09:09:57;17.05;73.97
36244;DHT22;22284;49.956;19.816;2022-09-13T09:13:07;17.10;73.44
36244;DHT22;22284;49.956;19.816;2022-09-13T09:16:19;17.17;72.50
36244;DHT22;22284;49.956;19.816;2022-09-13T09:19:35;17.25;72.16
36244;DHT22;22284;49.956;19.816;2022-09-13T09:22:36;17.29;71.50
36244;DHT22;22284;49.956;19.816;2022-09-13T09:25:37;17.30;71.46
36244;DHT22;22284;49.956;19.816;2022-09-13T09:28:39;17.38;70.76
36244;DHT22;22284;49.956;19.816;2022-09-13T09:35:43;17.62;69.98
36244;DHT22;22284;49.956;19.816;2022-09-13T09:38:43;17.77;69.05
36244;DHT22;22284;49.956;19.816;2022-09-13T09:41:44;17.88;68.98
36244;DHT22;22284;49.956;19.816;2022-09-13T09:44:50;17.99;68.50
36244;DHT22;22284;49.956;19.816;2022-09-13T09:47:53;18.06;67.77
36244;DHT22;22284;49.956;19.816;2022-09-13T09:50:56;18.14;66.72
36244;DHT22;22284;49.956;19.816;2022-09-13T09:54:02;18.21;66.47
36244;DHT22;22284;49.956;19.816;2022-09-13T09:57:06;18.30;66.73
36244;DHT22;22284;49.956;19.816;2022-09-13T10:00:12;18.38;65.71
36244;DHT22;22284;49.956;19.816;2022-09-13T10:03:17;18.47;65.76
36244;DHT22;22284;49.956;19.816;2022-09-13T10:06:21;18.52;65.28
36244;DHT22;22284;49.956;19.816;2022-09-13T10:09:24;18.55;64.87
36244;DHT22;22284;49.956;19.816;2022-09-13T10:12:28;18.57;64.64
36244;DHT22;22284;49.956;19.816;2022-09-13T10:15:33;18.65;64.79
36244;DHT22;22284;49.956;19.816;2022-09-13T10:18:36;18.68;64.53
36244;DHT22;22284;49.956;19.816;2022-09-13T10:21:37;18.71;63.96
36244;DHT22;22284;49.956;19.816;2022-09-13T10:24:38;18.80;64.70
36244;DHT22;22284;49.956;19.816;2022-09-13T10:27:42;18.93;64.88
36244;DHT22;22284;49.956;19.816;2022-09-13T10:31:05;19.00;64.19
36244;DHT22;22284;49.956;19.816;2022-09-13T10:37:27;19.17;63.62
36244;DHT22;22284;49.956;19.816;2022-09-13T10:40:33;19.23;63.52
36244;DHT22;22284;49.956;19.816;2022-09-13T10:43:36;19.27;63.58
36244;DHT22;22284;49.956;19.816;2022-09-13T10:46:38;19.33;62.57
36244;DHT22;22284;49.956;19.816;2022-09-13T10:49:52;19.33;62.07
36244;DHT22;22284;49.956;19.816;2022-09-13T10:53:00;19.40;61.98
36244;DHT22;22284;49.956;19.816;2022-09-13T10:56:04;19.42;61.82
36244;DHT22;22284;49.956;19.816;2022-09-13T10:59:22;19.54;61.04
36244;DHT22;22284;49.956;19.816;2022-09-13T11:16:43;19.72;58.79
36244;DHT22;22284;49.956;19.816;2022-09-13T11:19:58;19.70;58.39
36244;DHT22;22284;49.956;19.816;2022-09-13T11:30:14;19.89;58.36
36244;DHT22;22284;49.956;19.816;2022-09-13T11:37:34;19.99;58.07
36244;DHT22;22284;49.956;19.816;2022-09-13T11:41:00;19.97;57.81
36244;DHT22;22284;49.956;19.816;2022-09-13T11:44:30;20.00;57.57
36244;DHT22;22284;49.956;19.816;2022-09-13T11:50:57;20.10;57.26
36244;DHT22;22284;49.956;19.816;2022-09-13T11:57:37;20.06;55.81
36244;DHT22;22284;49.956;19.816;2022-09-13T12:00:58;20.03;55.39
36244;DHT22;22284;49.956;19.816;2022-09-13T12:04:16;20.04;55.57
36244;DHT22;22284;49.956;19.816;2022-09-13T12:07:33;20.07;55.70
36244;DHT22;22284;49.956;19.816;2022-09-13T12:11:07;20.10;55.37
36244;DHT22;22284;49.956;19.816;2022-09-13T12:14:13;20.14;55.93
36244;DHT22;22284;49.956;19.816;2022-09-13T12:17:28;20.21;55.96
36244;DHT22;22284;49.956;19.816;2022-09-13T12:20:41;20.28;56.13
36244;DHT22;22284;49.956;19.816;2022-09-13T12:24:12;20.27;56.30
36244;DHT22;22284;49.956;19.816;2022-09-13T12:27:48;20.28;56.36
36244;DHT22;22284;49.956;19.816;2022-09-13T12:31:17;20.37;55.48
36244;DHT22;22284;49.956;19.816;2022-09-13T12:34:00;20.35;54.74
36244;DHT22;22284;49.956;19.816;2022-09-13T12:37:18;20.37;55.25
36244;DHT22;22284;49.956;19.816;2022-09-13T12:41:00;20.32;55.08
36244;DHT22;22284;49.956;19.816;2022-09-13T12:44:49;20.34;55.97
36244;DHT22;22284;49.956;19.816;2022-09-13T13:01:34;20.35;55.16
36244;DHT22;22284;49.956;19.816;2022-09-13T13:04:35;20.31;55.04
36244;DHT22;22284;49.956;19.816;2022-09-13T13:07:38;20.30;54.86
36244;DHT22;22284;49.956;19.816;2022-09-13T13:10:39;20.25;54.81
36244;DHT22;22284;49.956;19.816;2022-09-13T13:13:52;20.20;54.38
36244;DHT22;22284;49.956;19.816;2022-09-13T13:16:49;20.14;54.66
36244;DHT22;22284;49.956;19.816;2022-09-13T13:19:50;20.16;54.99
36244;DHT22;22284;49.956;19.816;2022-09-13T13:22:51;20.14;55.42
36244;DHT22;22284;49.956;19.816;2022-09-13T13:29:30;20.19;55.52
36244;DHT22;22284;49.956;19.816;2022-09-13T13:32:31;20.24;55.65
36244;DHT22;22284;49.956;19.816;2022-09-13T13:35:32;20.28;55.26
36244;DHT22;22284;49.956;19.816;2022-09-13T13:38:44;20.39;55.19
36244;DHT22;22284;49.956;19.816;2022-09-13T13:45:19;20.56;54.07
36244;DHT22;22284;49.956;19.816;2022-09-13T13:48:37;20.63;53.91
36244;DHT22;22284;49.956;19.816;2022-09-13T13:51:39;20.66;53.95
36244;DHT22;22284;49.956;19.816;2022-09-13T14:01:13;20.78;53.63
36244;DHT22;22284;49.956;19.816;2022-09-13T14:05:02;20.84;54.08
36244;DHT22;22284;49.956;19.816;2022-09-13T14:11:59;20.87;53.88
36244;DHT22;22284;49.956;19.816;2022-09-13T14:15:40;20.89;53.94
36244;DHT22;22284;49.956;19.816;2022-09-13T14:22:25;20.75;54.47
36244;DHT22;22284;49.956;19.816;2022-09-13T14:25:27;20.68;55.05
36244;DHT22;22284;49.956;19.816;2022-09-13T14:28:28;20.56;55.44
36244;DHT22;22284;49.956;19.816;2022-09-13T14:31:29;20.49;55.71
36244;DHT22;22284;49.956;19.816;2022-09-13T14:34:35;20.42;56.03
36244;DHT22;22284;49.956;19.816;2022-09-13T14:37:37;20.37;56.55
36244;DHT22;22284;49.956;19.816;2022-09-13T14:40:39;20.34;56.94
36244;DHT22;22284;49.956;19.816;2022-09-13T14:43:42;20.28;57.23
36244;DHT22;22284;49.956;19.816;2022-09-13T14:46:48;20.20;57.45
36244;DHT22;22284;49.956;19.816;2022-09-13T14:49:58;20.17;57.60
36244;DHT22;22284;49.956;19.816;2022-09-13T14:53:04;20.14;57.64
36244;DHT22;22284;49.956;19.816;2022-09-13T14:56:17;20.09;57.62
36244;DHT22;22284;49.956;19.816;2022-09-13T15:02:37;20.07;57.89
36244;DHT22;22284;49.956;19.816;2022-09-13T15:05:39;20.04;58.10
36244;DHT22;22284;49.956;19.816;2022-09-13T15:08:45;20.06;58.38
36244;DHT22;22284;49.956;19.816;2022-09-13T15:11:57;20.03;58.78
36244;DHT22;22284;49.956;19.816;2022-09-13T15:15:26;20.00;58.97
36244;DHT22;22284;49.956;19.816;2022-09-13T15:18:31;19.94;59.22
36244;DHT22;22284;49.956;19.816;2022-09-13T15:21:34;19.89;59.46
36244;DHT22;22284;49.956;19.816;2022-09-13T15:24:37;19.86;59.95
36244;DHT22;22284;49.956;19.816;2022-09-13T15:27:46;19.82;60.43
36244;DHT22;22284;49.956;19.816;2022-09-13T15:30:47;19.77;60.69
36244;DHT22;22284;49.956;19.816;2022-09-13T15:34:30;19.70;60.96
36244;DHT22;22284;49.956;19.816;2022-09-13T15:37:14;19.64;61.37
36244;DHT22;22284;49.956;19.816;2022-09-13T15:40:19;19.58;61.50
36244;DHT22;22284;49.956;19.816;2022-09-13T15:43:20;19.55;61.85
36244;DHT22;22284;49.956;19.816;2022-09-13T15:46:21;19.47;62.08
36244;DHT22;22284;49.956;19.816;2022-09-13T15:49:25;19.44;62.26
36244;DHT22;22284;49.956;19.816;2022-09-13T15:52:26;19.41;62.49
36244;DHT22;22284;49.956;19.816;2022-09-13T15:55:29;19.38;62.79
36244;DHT22;22284;49.956;19.816;2022-09-13T15:58:31;19.31;63.13
36244;DHT22;22284;49.956;19.816;2022-09-13T16:01:33;19.31;63.32
36244;DHT22;22284;49.956;19.816;2022-09-13T16:04:34;19.27;63.53
36244;DHT22;22284;49.956;19.816;2022-09-13T16:07:35;19.23;63.74
36244;DHT22;22284;49.956;19.816;2022-09-13T16:10:36;19.17;63.81
36244;DHT22;22284;49.956;19.816;2022-09-13T16:13:37;19.14;63.89
36244;DHT22;22284;49.956;19.816;2022-09-13T16:16:38;19.10;63.94
36244;DHT22;22284;49.956;19.816;2022-09-13T16:19:39;19.07;64.03
36244;DHT22;22284;49.956;19.816;2022-09-13T16:22:42;19.04;64.02
36244;DHT22;22284;49.956;19.816;2022-09-13T16:25:43;19.00;64.01
36244;DHT22;22284;49.956;19.816;2022-09-13T16:28:44;18.97;64.02
36244;DHT22;22284;49.956;19.816;2022-09-13T16:31:45;18.95;64.19
36244;DHT22;22284;49.956;19.816;2022-09-13T16:34:46;18.92;64.40
36244;DHT22;22284;49.956;19.816;2022-09-13T16:37:47;18.85;64.63
36244;DHT22;22284;49.956;19.816;2022-09-13T16:40:50;18.82;64.86
36244;DHT22;22284;49.956;19.816;2022-09-13T16:43:54;18.76;65.23
36244;DHT22;22284;49.956;19.816;2022-09-13T16:46:55;18.72;65.29
36244;DHT22;22284;49.956;19.816;2022-09-13T16:49:56;18.67;65.13
36244;DHT22;22284;49.956;19.816;2022-09-13T16:52:57;18.68;65.00
36244;DHT22;22284;49.956;19.816;2022-09-13T16:56:11;18.59;64.97
36244;DHT22;22284;49.956;19.816;2022-09-13T16:59:13;18.57;64.99
36244;DHT22;22284;49.956;19.816;2022-09-13T17:02:14;18.54;65.08
36244;DHT22;22284;49.956;19.816;2022-09-13T17:05:15;18.50;65.40
36244;DHT22;22284;49.956;19.816;2022-09-13T17:08:17;18.50;65.68
36244;DHT22;22284;49.956;19.816;2022-09-13T17:11:21;18.44;65.88
36244;DHT22;22284;49.956;19.816;2022-09-13T17:14:22;18.41;65.94
36244;DHT22;22284;49.956;19.816;2022-09-13T17:17:23;18.38;66.11
36244;DHT22;22284;49.956;19.816;2022-09-13T17:20:24;18.34;66.37
36244;DHT22;22284;49.956;19.816;2022-09-13T17:23:25;18.31;66.99
36244;DHT22;22284;49.956;19.816;2022-09-13T17:26:28;18.30;67.43
36244;DHT22;22284;49.956;19.816;2022-09-13T17:29:29;18.24;67.90
36244;DHT22;22284;49.956;19.816;2022-09-13T17:32:31;18.21;68.35
36244;DHT22;22284;49.956;19.816;2022-09-13T17:35:33;18.17;68.72
36244;DHT22;22284;49.956;19.816;2022-09-13T17:38:35;18.14;68.79
36244;DHT22;22284;49.956;19.816;2022-09-13T17:41:36;18.14;68.89
36244;DHT22;22284;49.956;19.816;2022-09-13T17:44:37;18.12;68.79
36244;DHT22;22284;49.956;19.816;2022-09-13T17:47:39;18.07;69.03
36244;DHT22;22284;49.956;19.816;2022-09-13T17:50:40;18.05;69.10
36244;DHT22;22284;49.956;19.816;2022-09-13T17:53:45;18.02;69.00
36244;DHT22;22284;49.956;19.816;2022-09-13T17:56:49;18.00;69.07
36244;DHT22;22284;49.956;19.816;2022-09-13T17:59:50;18.02;69.11
36244;DHT22;22284;49.956;19.816;2022-09-13T18:02:51;17.99;69.36
36244;DHT22;22284;49.956;19.816;2022-09-13T18:05:55;17.96;69.44
36244;DHT22;22284;49.956;19.816;2022-09-13T18:08:57;17.98;69.44
36244;DHT22;22284;49.956;19.816;2022-09-13T18:11:58;17.95;69.49
36244;DHT22;22284;49.956;19.816;2022-09-13T18:14:59;17.92;69.63
36244;DHT22;22284;49.956;19.816;2022-09-13T18:18:01;17.93;69.37
36244;DHT22;22284;49.956;19.816;2022-09-13T18:21:05;17.90;69.36
36244;DHT22;22284;49.956;19.816;2022-09-13T18:24:07;17.89;69.33
36244;DHT22;22284;49.956;19.816;2022-09-13T18:27:08;17.89;69.32
36244;DHT22;22284;49.956;19.816;2022-09-13T18:30:10;17.85;69.34
36244;DHT22;22284;49.956;19.816;2022-09-13T18:33:11;17.82;69.26
36244;DHT22;22284;49.956;19.816;2022-09-13T18:36:16;17.81;69.19
36244;DHT22;22284;49.956;19.816;2022-09-13T18:39:20;17.77;69.20
36244;DHT22;22284;49.956;19.816;2022-09-13T18:42:22;17.74;69.23
36244;DHT22;22284;49.956;19.816;2022-09-13T18:45:23;17.71;69.19
36244;DHT22;22284;49.956;19.816;2022-09-13T18:48:30;17.70;69.16
36244;DHT22;22284;49.956;19.816;2022-09-13T18:51:38;17.65;69.03
36244;DHT22;22284;49.956;19.816;2022-09-13T18:54:40;17.64;68.95
36244;DHT22;22284;49.956;19.816;2022-09-13T18:57:41;17.57;68.82
36244;DHT22;22284;49.956;19.816;2022-09-13T19:00:42;17.55;68.72
36244;DHT22;22284;49.956;19.816;2022-09-13T19:06:58;17.51;68.62
36244;DHT22;22284;49.956;19.816;2022-09-13T19:09:59;17.48;68.47
36244;DHT22;22284;49.956;19.816;2022-09-13T19:13:00;17.47;68.51
36244;DHT22;22284;49.956;19.816;2022-09-13T19:16:05;17.47;68.48
36244;DHT22;22284;49.956;19.816;2022-09-13T19:19:06;17.43;68.55
36244;DHT22;22284;49.956;19.816;2022-09-13T19:22:07;17.40;68.55
36244;DHT22;22284;49.956;19.816;2022-09-13T19:25:08;17.36;68.60
36244;DHT22;22284;49.956;19.816;2022-09-13T19:28:09;17.34;68.60
36244;DHT22;22284;49.956;19.816;2022-09-13T19:31:11;17.31;68.58
36244;DHT22;22284;49.956;19.816;2022-09-13T19:34:14;17.31;68.52
36244;DHT22;22284;49.956;19.816;2022-09-13T19:37:15;17.27;68.59
36244;DHT22;22284;49.956;19.816;2022-09-13T19:40:16;17.26;68.67
36244;DHT22;22284;49.956;19.816;2022-09-13T19:43:17;17.25;68.65
36244;DHT22;22284;49.956;19.816;2022-09-13T19:46:24;17.22;68.67
36244;DHT22;22284;49.956;19.816;2022-09-13T19:49:27;17.19;68.66
36244;DHT22;22284;49.956;19.816;2022-09-13T19:52:28;17.17;68.73
36244;DHT22;22284;49.956;19.816;2022-09-13T19:55:29;17.19;68.74
36244;DHT22;22284;49.956;19.816;2022-09-13T19:58:32;17.17;68.69
36244;DHT22;22284;49.956;19.816;2022-09-13T20:01:40;17.17;68.73
36244;DHT22;22284;49.956;19.816;2022-09-13T20:04:42;17.19;68.76
36244;DHT22;22284;49.956;19.816;2022-09-13T20:07:45;17.19;68.77
36244;DHT22;22284;49.956;19.816;2022-09-13T20:10:46;17.19;68.71
36244;DHT22;22284;49.956;19.816;2022-09-13T20:13:47;17.17;68.89
36244;DHT22;22284;49.956;19.816;2022-09-13T20:16:48;17.23;68.94
36244;DHT22;22284;49.956;19.816;2022-09-13T20:19:50;17.20;69.04
36244;DHT22;22284;49.956;19.816;2022-09-13T20:22:51;17.23;69.07
36244;DHT22;22284;49.956;19.816;2022-09-13T20:25:52;17.23;69.08
36244;DHT22;22284;49.956;19.816;2022-09-13T20:28:57;17.22;69.08
36244;DHT22;22284;49.956;19.816;2022-09-13T20:32:00;17.20;68.98
36244;DHT22;22284;49.956;19.816;2022-09-13T20:35:03;17.25;69.00
36244;DHT22;22284;49.956;19.816;2022-09-13T20:38:04;17.25;69.03
36244;DHT22;22284;49.956;19.816;2022-09-13T20:41:09;17.26;68.93
36244;DHT22;22284;49.956;19.816;2022-09-13T20:44:11;17.29;68.82
36244;DHT22;22284;49.956;19.816;2022-09-13T20:47:13;17.27;68.72
36244;DHT22;22284;49.956;19.816;2022-09-13T20:50:14;17.27;68.70
36244;DHT22;22284;49.956;19.816;2022-09-13T20:53:15;17.26;68.70
36244;DHT22;22284;49.956;19.816;2022-09-13T20:56:17;17.26;68.77
36244;DHT22;22284;49.956;19.816;2022-09-13T20:59:18;17.23;68.84
36244;DHT22;22284;49.956;19.816;2022-09-13T21:02:21;17.22;68.95
36244;DHT22;22284;49.956;19.816;2022-09-13T21:05:22;17.22;68.98
36244;DHT22;22284;49.956;19.816;2022-09-13T21:08:23;17.23;69.04
36244;DHT22;22284;49.956;19.816;2022-09-13T21:11:42;17.25;69.04
36244;DHT22;22284;49.956;19.816;2022-09-13T21:14:43;17.23;69.13
36244;DHT22;22284;49.956;19.816;2022-09-13T21:17:45;17.20;69.25
36244;DHT22;22284;49.956;19.816;2022-09-13T21:20:57;17.22;69.43
36244;DHT22;22284;49.956;19.816;2022-09-13T21:23:58;17.20;69.54